Pagina principale
METAR-TAF:

METAR-TAF

Aeroporti :

Bíldudalur, Islanda

latitudine: 65-38-30N, longitudine: 23-32-45W, altezza: 8 m

Osservazione

Il bollettino è stato emesso 17 ore e 12 minuti fa, alle 14:00 UTC
Vento 9 kt da nord/nord-est
Temperature 13°C
Umidità 44%
Pressione 1010 hPa
Visibilità 10 km o più
Poco nuvoloso ad un'altezza di 3000 ft

METAR: BIBD 191400Z 02009KT 9999 FEW030 13/01 Q1010

Ora: 07:12 (07:12 UTC)

Previsione

Il bollettino è stato emesso 17 ore e 53 minuti fa, alle 13:19 UTC
Previsione valida dal 19 alle 14 UTC al 19 alle 23 UTC
Vento 12 kt da nord/nord-est
Visibilità 10 km o più
Poco nuvoloso ad un'altezza di 3000 ft
Nubi sparse ad un'altezza di 4500 ft

TAF: BIBD 191319Z 1914/1923 03012KT 9999 FEW030 SCT045

Osservazioni e previsioni meteorologiche di più di 4000 aeroporti (messaggi METAR e TAF).

Le stazioni disponibili sono rappresentate dai dischi gialli e rossi sulla carta.

Puntare il mouse per vedere il nome della stazione.

Clicca sopra per visualizzare le osservazioni e previsioni meteorologiche.

Per cambiare la mappa : fare clic sui pulsanti verdi con una croce nera per ingrandire, il pulsante verde con un trattino per diminuire, o sulla freccia verde per le mappe adiacenti.


METAR-TAF: